createdAt,value
2019-05-01T00:01:24.052Z,10.42
2019-05-01T00:04:03.117Z,10.45
2019-05-01T00:06:42.370Z,10.53
2019-05-01T00:09:14.830Z,10.37
2019-05-01T00:11:46.405Z,10.34
2019-05-01T00:14:17.789Z,10.35
2019-05-01T00:16:49.557Z,10.36
2019-05-01T00:19:21.068Z,10.34
2019-05-01T00:21:52.474Z,10.43
2019-05-01T00:24:24.149Z,10.25
2019-05-01T00:26:55.639Z,10.32
2019-05-01T00:29:27.011Z,10.24
2019-05-01T00:31:58.356Z,10.19
2019-05-01T00:34:29.739Z,10.30
2019-05-01T00:37:01.226Z,10.29
2019-05-01T00:39:32.671Z,10.28
2019-05-01T00:42:04.205Z,10.24
2019-05-01T00:44:35.691Z,10.23
2019-05-01T00:47:07.068Z,10.17
2019-05-01T00:49:38.408Z,10.18
2019-05-01T00:52:09.773Z,10.13
2019-05-01T00:54:42.826Z,10.07
2019-05-01T00:57:19.137Z,10.15
2019-05-01T00:59:52.283Z,10.16
2019-05-01T01:02:31.281Z,10.18
2019-05-01T01:05:02.764Z,10.12
2019-05-01T01:07:34.150Z,10.10
2019-05-01T01:10:07.229Z,10.04
2019-05-01T01:12:38.579Z,10.07
2019-05-01T01:15:10.290Z,9.99
2019-05-01T01:17:42.075Z,10.05
2019-05-01T01:20:14.323Z,10.11
2019-05-01T01:22:45.892Z,10.00
2019-05-01T01:25:18.377Z,10.10
2019-05-01T01:27:49.821Z,10.04
2019-05-01T01:30:21.281Z,10.04
2019-05-01T01:32:52.726Z,10.08
2019-05-01T01:35:24.177Z,10.16
2019-05-01T01:37:55.724Z,10.10
2019-05-01T01:40:27.175Z,10.16
2019-05-01T01:43:13.726Z,10.13
2019-05-01T01:45:46.877Z,10.00
2019-05-01T01:48:18.732Z,10.05
2019-05-01T01:50:50.661Z,9.95
2019-05-01T01:53:23.451Z,10.00
2019-05-01T01:55:55.587Z,10.02
2019-05-01T01:58:27.201Z,10.13
2019-05-01T02:01:09.176Z,10.10
2019-05-01T02:03:44.173Z,10.14
2019-05-01T02:06:15.575Z,10.12
2019-05-01T02:08:56.233Z,10.09
2019-05-01T02:11:20.524Z,9.96
2019-05-01T02:13:56.645Z,10.06
2019-05-01T02:16:28.068Z,10.05
2019-05-01T02:18:59.810Z,10.07
2019-05-01T02:21:31.240Z,10.10
2019-05-01T02:24:02.610Z,10.03
2019-05-01T02:26:42.261Z,10.08
2019-05-01T02:29:15.334Z,10.05
2019-05-01T02:31:50.025Z,10.09
2019-05-01T02:34:22.623Z,10.15
2019-05-01T02:36:57.208Z,10.04
2019-05-01T02:39:30.822Z,10.07
2019-05-01T02:42:02.838Z,10.03
2019-05-01T02:44:37.286Z,10.05
2019-05-01T02:47:11.715Z,10.01
2019-05-01T02:49:52.199Z,10.09
2019-05-01T02:52:26.489Z,10.06
2019-05-01T02:55:02.170Z,10.01
2019-05-01T02:57:36.149Z,9.99
2019-05-01T03:00:09.454Z,10.08
2019-05-01T03:02:41.574Z,9.98
2019-05-01T03:05:13.032Z,10.05
2019-05-01T03:07:44.764Z,9.97
2019-05-01T03:10:16.641Z,10.07
2019-05-01T03:12:49.992Z,10.13
2019-05-01T03:15:23.831Z,10.12
2019-05-01T03:17:57.110Z,10.10
2019-05-01T03:20:33.125Z,10.12
2019-05-01T03:23:22.826Z,10.14
2019-05-01T03:25:54.743Z,10.15
2019-05-01T03:28:27.426Z,10.14
2019-05-01T03:30:58.878Z,10.23
2019-05-01T03:33:30.855Z,10.17
2019-05-01T03:36:02.288Z,10.10
2019-05-01T03:38:34.535Z,10.23
2019-05-01T03:41:06.476Z,10.11
2019-05-01T03:43:37.889Z,10.28
2019-05-01T03:46:10.594Z,10.26
2019-05-01T03:48:42.626Z,10.21
2019-05-01T03:51:14.063Z,10.34
2019-05-01T03:53:46.567Z,10.36
2019-05-01T03:56:18.794Z,10.32
2019-05-01T03:58:50.961Z,10.27
2019-05-01T04:01:40.112Z,10.31
2019-05-01T04:04:13.229Z,10.41
2019-05-01T04:06:44.888Z,10.25
2019-05-01T04:09:16.648Z,10.28
2019-05-01T04:11:49.067Z,10.51
2019-05-01T04:14:20.972Z,10.56
2019-05-01T04:16:53.993Z,10.62
2019-05-01T04:19:26.860Z,10.62
2019-05-01T04:22:00.059Z,10.64
2019-05-01T04:24:32.000Z,10.61
2019-05-01T04:27:05.231Z,10.63
2019-05-01T04:29:38.430Z,10.72
2019-05-01T04:32:14.702Z,10.77
2019-05-01T04:34:48.094Z,10.86
2019-05-01T04:37:21.744Z,10.88
2019-05-01T04:39:53.087Z,10.97
2019-05-01T04:42:24.580Z,11.06
2019-05-01T04:44:56.252Z,11.12
2019-05-01T04:47:27.812Z,11.26
2019-05-01T04:50:00.316Z,11.24
2019-05-01T04:52:31.846Z,11.26
2019-05-01T04:55:04.536Z,11.38
2019-05-01T04:57:36.280Z,11.50
2019-05-01T05:00:08.346Z,11.55
2019-05-01T05:02:44.242Z,11.55
2019-05-01T05:05:15.798Z,11.54
2019-05-01T05:07:47.398Z,11.59
2019-05-01T05:10:19.002Z,11.64
2019-05-01T05:12:52.037Z,11.64
2019-05-01T05:15:34.371Z,11.78
2019-05-01T05:18:06.721Z,11.82
2019-05-01T05:20:38.319Z,11.89
2019-05-01T05:23:10.046Z,12.04
2019-05-01T05:25:42.760Z,12.13
2019-05-01T05:28:14.770Z,12.13
2019-05-01T05:30:48.088Z,12.13
2019-05-01T05:33:20.934Z,12.27
2019-05-01T05:35:54.166Z,12.32
2019-05-01T05:38:29.745Z,12.38
2019-05-01T05:41:03.177Z,12.44
2019-05-01T05:43:33.852Z,12.65
2019-05-01T05:46:05.660Z,12.70
2019-05-01T05:48:38.482Z,12.76
2019-05-01T05:51:13.198Z,12.70
2019-05-01T05:53:48.424Z,12.82
2019-05-01T05:56:21.990Z,12.89
2019-05-01T05:59:03.522Z,13.06
2019-05-01T06:01:39.214Z,13.23
2019-05-01T06:04:26.388Z,13.00
2019-05-01T06:07:01.095Z,13.09
2019-05-01T06:09:37.107Z,13.12
2019-05-01T06:12:21.699Z,13.24
2019-05-01T06:15:02.402Z,13.37
2019-05-01T06:17:42.092Z,13.43
2019-05-01T06:20:26.021Z,13.60
2019-05-01T06:23:06.098Z,13.85
2019-05-01T06:25:40.750Z,13.89
2019-05-01T06:28:12.897Z,14.05
2019-05-01T06:30:47.169Z,13.91
2019-05-01T06:33:17.542Z,14.16
2019-05-01T06:35:48.942Z,14.06
2019-05-01T06:38:20.849Z,14.13
2019-05-01T06:40:58.133Z,14.30
2019-05-01T06:43:46.450Z,14.31
2019-05-01T06:46:22.173Z,14.36
2019-05-01T06:48:59.021Z,14.12
2019-05-01T06:51:35.880Z,14.08
2019-05-01T06:54:11.489Z,14.05
2019-05-01T06:56:44.843Z,13.94
2019-05-01T06:59:18.078Z,14.02
2019-05-01T07:01:53.207Z,14.20
2019-05-01T07:04:24.655Z,14.07
2019-05-01T07:06:56.422Z,14.23
2019-05-01T07:09:28.503Z,14.22
2019-05-01T07:12:01.246Z,14.28
2019-05-01T07:14:32.761Z,14.20
2019-05-01T07:17:04.200Z,14.34
2019-05-01T07:19:46.355Z,14.45
2019-05-01T07:22:17.952Z,14.62
2019-05-01T07:24:49.550Z,14.41
2019-05-01T07:27:23.907Z,14.55
2019-05-01T07:29:55.945Z,14.42
2019-05-01T07:32:28.023Z,14.58
2019-05-01T07:35:02.090Z,14.58
2019-05-01T07:37:33.834Z,14.89
2019-05-01T07:40:09.391Z,15.00
2019-05-01T07:42:43.735Z,15.11
2019-05-01T07:45:19.606Z,15.16
2019-05-01T07:47:53.474Z,15.01
2019-05-01T07:50:31.633Z,15.07
2019-05-01T07:52:58.382Z,15.16
2019-05-01T07:55:35.857Z,15.40
2019-05-01T07:58:10.456Z,15.28
2019-05-01T08:01:04.277Z,15.39
2019-05-01T08:03:37.926Z,15.58
2019-05-01T08:06:08.997Z,15.46
2019-05-01T08:08:40.967Z,15.48
2019-05-01T08:11:12.413Z,15.67
2019-05-01T08:13:43.862Z,15.70
2019-05-01T08:16:15.318Z,15.80
2019-05-01T08:18:54.410Z,16.12
2019-05-01T08:21:27.593Z,16.32
2019-05-01T08:23:58.991Z,16.49
2019-05-01T08:26:30.335Z,16.51
2019-05-01T08:29:06.825Z,16.73
2019-05-01T08:31:41.383Z,16.91
2019-05-01T08:34:32.468Z,17.22
2019-05-01T08:37:06.457Z,17.18
2019-05-01T08:39:39.814Z,17.05
2019-05-01T08:42:09.969Z,17.18
2019-05-01T08:44:43.058Z,16.97
2019-05-01T08:47:28.025Z,17.27
2019-05-01T08:50:01.023Z,16.84
2019-05-01T08:52:32.656Z,17.02
2019-05-01T08:55:09.296Z,17.03
2019-05-01T08:57:39.748Z,17.06
2019-05-01T09:00:11.506Z,17.81
2019-05-01T09:02:43.739Z,18.37
2019-05-01T09:05:28.286Z,17.56
2019-05-01T09:07:51.199Z,17.54
2019-05-01T09:10:23.257Z,17.48
2019-05-01T09:12:54.827Z,17.76
2019-05-01T09:15:26.175Z,17.95
2019-05-01T09:17:58.708Z,18.19
2019-05-01T09:20:31.449Z,18.19
2019-05-01T09:23:02.694Z,18.08
2019-05-01T09:25:41.935Z,18.40
2019-05-01T09:28:18.004Z,18.03
2019-05-01T09:31:01.618Z,18.39
2019-05-01T09:33:30.820Z,18.50
2019-05-01T09:36:03.580Z,18.27
2019-05-01T09:38:34.982Z,18.50
2019-05-01T09:41:06.475Z,18.18
2019-05-01T09:43:37.919Z,18.07
2019-05-01T09:46:09.579Z,18.40
2019-05-01T09:48:41.039Z,18.23
2019-05-01T09:51:19.790Z,18.23
2019-05-01T09:54:09.889Z,18.00
2019-05-01T09:56:42.724Z,18.00
2019-05-01T09:59:17.360Z,18.26
2019-05-01T10:01:47.746Z,18.45
2019-05-01T10:04:19.681Z,18.57
2019-05-01T10:06:52.390Z,18.27
2019-05-01T10:09:26.613Z,18.75
2019-05-01T10:11:57.286Z,18.97
2019-05-01T10:14:31.732Z,18.75
2019-05-01T10:17:01.931Z,18.78
2019-05-01T10:19:33.382Z,19.06
2019-05-01T10:22:04.758Z,19.70
2019-05-01T10:24:37.587Z,19.66
2019-05-01T10:27:11.117Z,19.16
2019-05-01T10:29:50.147Z,18.95
2019-05-01T10:32:23.271Z,18.56
2019-05-01T10:34:56.906Z,18.61
2019-05-01T10:37:33.162Z,18.88
2019-05-01T10:40:01.182Z,19.23
2019-05-01T10:42:32.626Z,19.25
2019-05-01T10:45:06.512Z,19.52
2019-05-01T10:47:38.071Z,19.48
2019-05-01T10:50:09.504Z,19.42
2019-05-01T10:52:40.797Z,19.11
2019-05-01T10:55:12.448Z,19.17
2019-05-01T10:57:43.779Z,18.96
2019-05-01T11:00:15.421Z,19.17
2019-05-01T11:02:48.646Z,19.19
2019-05-01T11:05:20.033Z,18.86
2019-05-01T11:07:51.389Z,19.13
2019-05-01T11:10:22.679Z,19.31
2019-05-01T11:12:54.345Z,19.41
2019-05-01T11:15:26.217Z,19.53
2019-05-01T11:17:57.875Z,19.36
2019-05-01T11:20:29.620Z,19.72
2019-05-01T11:23:01.186Z,19.65
2019-05-01T11:25:33.238Z,19.47
2019-05-01T11:28:05.250Z,19.82
2019-05-01T11:30:36.970Z,19.55
2019-05-01T11:33:10.305Z,19.60
2019-05-01T11:35:46.232Z,19.52
2019-05-01T11:38:19.348Z,19.66
2019-05-01T11:40:52.622Z,19.78
2019-05-01T11:43:24.159Z,19.79
2019-05-01T11:45:55.742Z,19.91
2019-05-01T11:48:30.111Z,19.82
2019-05-01T11:50:59.801Z,19.61
2019-05-01T11:53:31.231Z,19.78
2019-05-01T11:56:02.763Z,19.96
2019-05-01T11:58:34.318Z,19.89
2019-05-01T12:01:06.663Z,20.19
2019-05-01T12:03:38.246Z,20.04
2019-05-01T12:06:22.288Z,20.01
2019-05-01T12:08:43.318Z,20.28
2019-05-01T12:11:16.188Z,20.60
2019-05-01T12:13:47.721Z,20.54
2019-05-01T12:16:20.765Z,20.62
2019-05-01T12:18:52.373Z,20.93
2019-05-01T12:21:23.995Z,21.18
2019-05-01T12:23:55.559Z,20.90
2019-05-01T12:26:27.149Z,20.90
2019-05-01T12:28:58.824Z,21.30
2019-05-01T12:31:31.335Z,21.05
2019-05-01T12:34:03.032Z,20.85
2019-05-01T12:36:36.340Z,20.41
2019-05-01T12:39:10.646Z,20.52
2019-05-01T12:41:51.013Z,20.77
2019-05-01T12:44:22.538Z,20.65
2019-05-01T12:47:01.789Z,20.65
2019-05-01T12:49:33.330Z,20.46
2019-05-01T12:52:10.575Z,20.38
2019-05-01T12:54:41.311Z,20.58
2019-05-01T12:57:13.406Z,20.35
2019-05-01T12:59:44.983Z,20.48
2019-05-01T13:02:16.523Z,20.60
2019-05-01T13:04:48.064Z,20.91
2019-05-01T13:07:19.833Z,21.11
2019-05-01T13:09:51.518Z,20.73
2019-05-01T13:12:24.232Z,20.75
2019-05-01T13:14:55.806Z,20.64
2019-05-01T13:17:27.380Z,20.72
2019-05-01T13:19:58.923Z,20.77
2019-05-01T13:22:30.468Z,20.47
2019-05-01T13:25:02.048Z,20.33
2019-05-01T13:27:35.152Z,20.15
2019-05-01T13:30:19.829Z,19.88
2019-05-01T13:32:52.922Z,19.94
2019-05-01T13:35:24.438Z,19.86
2019-05-01T13:37:55.977Z,19.98
2019-05-01T13:41:10.969Z,20.20
2019-05-01T13:43:42.699Z,20.08
2019-05-01T13:46:14.259Z,20.03
2019-05-01T13:48:45.949Z,20.02
2019-05-01T13:51:17.473Z,19.98
2019-05-01T13:53:49.016Z,19.85
2019-05-01T13:56:21.069Z,20.00
2019-05-01T13:58:52.676Z,19.93
2019-05-01T14:01:24.695Z,19.81
2019-05-01T14:03:56.294Z,19.82
2019-05-01T14:06:27.827Z,19.69
2019-05-01T14:08:59.379Z,19.64
2019-05-01T14:11:30.928Z,19.67
2019-05-01T14:14:02.487Z,19.64
2019-05-01T14:16:34.038Z,19.58
2019-05-01T14:19:05.593Z,19.54
2019-05-01T14:21:38.719Z,19.57
2019-05-01T14:24:14.494Z,19.58
2019-05-01T14:26:45.993Z,19.49
2019-05-01T14:29:17.668Z,19.42
2019-05-01T14:31:49.216Z,19.44
2019-05-01T14:34:20.749Z,19.43
2019-05-01T14:36:52.288Z,19.45
2019-05-01T14:39:23.850Z,19.53
2019-05-01T14:41:55.562Z,19.44
2019-05-01T14:44:36.610Z,19.37
2019-05-01T14:47:00.455Z,19.32
2019-05-01T14:49:32.009Z,19.27
2019-05-01T14:52:03.605Z,19.27
2019-05-01T14:54:35.225Z,19.29
2019-05-01T14:57:06.787Z,19.33
2019-05-01T14:59:39.234Z,19.30
2019-05-01T15:02:11.274Z,19.30
2019-05-01T15:04:42.855Z,19.33
2019-05-01T15:07:14.444Z,19.42
2019-05-01T15:09:45.963Z,19.58
2019-05-01T15:12:17.519Z,19.57
2019-05-01T15:14:53.598Z,19.57
2019-05-01T15:17:29.449Z,19.55
2019-05-01T15:20:03.488Z,19.59
2019-05-01T15:22:35.689Z,19.56
2019-05-01T15:25:07.587Z,19.58
2019-05-01T15:27:39.173Z,19.57
2019-05-01T15:30:12.461Z,19.61
2019-05-01T15:32:43.934Z,19.71
2019-05-01T15:35:15.427Z,19.90
2019-05-01T15:37:56.500Z,20.04
2019-05-01T15:40:21.284Z,19.75
2019-05-01T15:42:54.272Z,19.49
2019-05-01T15:45:25.848Z,19.55
2019-05-01T15:47:57.433Z,19.60
2019-05-01T15:50:28.966Z,19.47
2019-05-01T15:53:00.512Z,19.38
2019-05-01T15:55:32.135Z,19.70
2019-05-01T15:58:03.721Z,19.57
2019-05-01T16:00:35.384Z,19.11
2019-05-01T16:03:06.920Z,19.11
2019-05-01T16:05:38.518Z,18.99
2019-05-01T16:08:10.173Z,18.81
2019-05-01T16:10:43.302Z,18.79
2019-05-01T16:13:14.909Z,18.93
2019-05-01T16:15:46.491Z,18.67
2019-05-01T16:18:18.056Z,18.56
2019-05-01T16:20:49.726Z,18.43
2019-05-01T16:26:12.011Z,18.29
2019-05-01T16:28:43.547Z,18.26
2019-05-01T16:31:15.525Z,18.08
2019-05-01T16:33:47.356Z,18.09
2019-05-01T16:36:20.398Z,17.91
2019-05-01T16:39:02.751Z,17.81
2019-05-01T16:41:36.154Z,17.88
2019-05-01T16:44:08.120Z,17.86
2019-05-01T16:46:39.969Z,17.72
2019-05-01T16:49:11.845Z,17.68
2019-05-01T16:51:43.591Z,17.64
2019-05-01T16:54:15.652Z,17.56
2019-05-01T16:56:48.196Z,17.52
2019-05-01T16:59:20.011Z,17.51
2019-05-01T17:01:58.064Z,17.63
2019-05-01T17:04:32.728Z,17.62
2019-05-01T17:07:28.715Z,17.67
2019-05-01T17:10:08.307Z,17.62
2019-05-01T17:12:47.981Z,17.64
2019-05-01T17:15:21.453Z,17.58
2019-05-01T17:17:52.986Z,17.50
2019-05-01T17:20:26.278Z,17.49
2019-05-01T17:22:57.860Z,17.43
2019-05-01T17:25:29.683Z,17.42
2019-05-01T17:28:08.225Z,17.44
2019-05-01T17:30:46.578Z,17.41
2019-05-01T17:33:20.730Z,17.41
2019-05-01T17:35:51.784Z,17.31
2019-05-01T17:38:23.558Z,17.25
2019-05-01T17:40:55.137Z,17.18
2019-05-01T17:43:26.701Z,17.18
2019-05-01T17:46:01.014Z,17.14
2019-05-01T17:48:33.656Z,17.16
2019-05-01T17:51:06.241Z,17.15
2019-05-01T17:53:37.863Z,17.08
2019-05-01T17:56:10.048Z,17.05
2019-05-01T17:58:42.526Z,16.98
2019-05-01T18:01:33.159Z,16.95
2019-05-01T18:04:18.479Z,16.93
2019-05-01T18:06:51.373Z,16.88
2019-05-01T18:09:22.847Z,16.80
2019-05-01T18:11:54.244Z,16.73
2019-05-01T18:14:25.559Z,16.64
2019-05-01T18:16:56.914Z,16.68
2019-05-01T18:19:28.389Z,16.61
2019-05-01T18:22:01.347Z,16.54
2019-05-01T18:24:43.228Z,16.47
2019-05-01T18:27:20.374Z,16.41
2019-05-01T18:29:53.487Z,16.36
2019-05-01T18:32:36.474Z,16.37
2019-05-01T18:35:14.189Z,16.25
2019-05-01T18:37:49.940Z,16.20
2019-05-01T18:40:34.845Z,16.20
2019-05-01T18:43:06.837Z,16.13
2019-05-01T18:45:53.095Z,16.09
2019-05-01T18:48:24.938Z,16.07
2019-05-01T18:50:56.558Z,15.98
2019-05-01T18:53:28.102Z,15.95
2019-05-01T18:56:01.413Z,15.93
2019-05-01T18:58:32.500Z,15.89
2019-05-01T19:01:08.738Z,15.86
2019-05-01T19:03:37.209Z,15.79
2019-05-01T19:06:09.873Z,15.81
2019-05-01T19:08:41.195Z,15.73
2019-05-01T19:11:13.409Z,15.70
2019-05-01T19:13:44.855Z,15.65
2019-05-01T19:16:17.578Z,15.60
2019-05-01T19:18:51.729Z,15.58
2019-05-01T19:21:24.567Z,15.55
2019-05-01T19:24:00.432Z,15.49
2019-05-01T19:26:29.157Z,15.45
2019-05-01T19:29:03.751Z,15.46
2019-05-01T19:31:35.004Z,15.48
2019-05-01T19:34:06.467Z,15.49
2019-05-01T19:36:40.388Z,15.47
2019-05-01T19:39:11.707Z,15.40
2019-05-01T19:41:49.117Z,15.31
2019-05-01T19:44:18.956Z,15.31
2019-05-01T19:46:50.056Z,15.24
2019-05-01T19:49:24.631Z,15.17
2019-05-01T19:51:55.531Z,15.07
2019-05-01T19:54:29.809Z,14.95
2019-05-01T19:57:00.581Z,14.86
2019-05-01T19:59:33.067Z,14.79
2019-05-01T20:02:05.932Z,14.65
2019-05-01T20:04:37.294Z,14.68
2019-05-01T20:07:10.687Z,14.67
2019-05-01T20:09:41.654Z,14.41
2019-05-01T20:12:12.972Z,14.41
2019-05-01T20:14:49.056Z,14.44
2019-05-01T20:17:20.442Z,14.46
2019-05-01T20:19:51.947Z,14.49
2019-05-01T20:22:23.189Z,14.44
2019-05-01T20:24:54.480Z,14.49
2019-05-01T20:27:27.644Z,14.54
2019-05-01T20:29:58.742Z,14.53
2019-05-01T20:32:30.144Z,14.50
2019-05-01T20:35:01.484Z,14.46
2019-05-01T20:37:33.790Z,14.53
2019-05-01T20:40:11.356Z,14.44
2019-05-01T20:42:40.959Z,14.56
2019-05-01T20:45:17.343Z,14.49
2019-05-01T20:47:45.991Z,14.55
2019-05-01T20:50:17.903Z,14.57
2019-05-01T20:52:49.304Z,14.52
2019-05-01T20:55:20.731Z,14.53
2019-05-01T20:57:52.079Z,14.51
2019-05-01T21:00:25.560Z,14.54
2019-05-01T21:02:56.824Z,14.52
2019-05-01T21:05:29.655Z,14.49
2019-05-01T21:08:02.575Z,14.54
2019-05-01T21:10:36.081Z,14.40
2019-05-01T21:13:07.551Z,14.30
2019-05-01T21:15:39.016Z,14.27
2019-05-01T21:18:10.406Z,14.27
2019-05-01T21:20:43.474Z,14.17
2019-05-01T21:23:14.720Z,14.13
2019-05-01T21:25:46.024Z,14.15
2019-05-01T21:28:17.439Z,14.10
2019-05-01T21:30:48.825Z,14.16
2019-05-01T21:33:20.239Z,14.28
2019-05-01T21:35:53.357Z,14.31
2019-05-01T21:38:24.707Z,14.28
2019-05-01T21:40:56.002Z,14.32
2019-05-01T21:43:32.499Z,14.37
2019-05-01T21:46:01.131Z,14.25
2019-05-01T21:48:33.436Z,14.34
2019-05-01T21:51:07.511Z,14.28
2019-05-01T21:53:42.677Z,14.18
2019-05-01T21:56:12.170Z,14.13
2019-05-01T21:58:45.249Z,14.05
2019-05-01T22:01:16.645Z,14.00
2019-05-01T22:03:48.111Z,13.94
2019-05-01T22:06:20.819Z,13.89
2019-05-01T22:08:52.075Z,13.93
2019-05-01T22:11:23.474Z,13.87
2019-05-01T22:13:55.189Z,13.87
2019-05-01T22:16:29.418Z,13.77
2019-05-01T22:19:02.274Z,13.74
2019-05-01T22:21:35.260Z,13.68
2019-05-01T22:24:26.182Z,13.69
2019-05-01T22:27:05.246Z,13.68
2019-05-01T22:29:38.229Z,13.71
2019-05-01T22:32:14.049Z,13.74
2019-05-01T22:34:50.047Z,13.80
2019-05-01T22:37:21.275Z,13.73
2019-05-01T22:39:56.938Z,13.71
2019-05-01T22:42:28.168Z,13.69
2019-05-01T22:44:59.430Z,13.76
2019-05-01T22:47:30.864Z,13.72
2019-05-01T22:50:02.233Z,13.69
2019-05-01T22:52:33.847Z,13.71
2019-05-01T22:55:06.645Z,13.69
2019-05-01T22:57:38.190Z,13.61
2019-05-01T23:00:14.017Z,13.57
2019-05-01T23:02:45.927Z,13.49
2019-05-01T23:05:17.418Z,13.47
2019-05-01T23:07:48.684Z,13.49
2019-05-01T23:10:20.953Z,13.43
2019-05-01T23:12:52.679Z,13.50
2019-05-01T23:15:25.722Z,13.53
2019-05-01T23:17:58.135Z,13.57
2019-05-01T23:20:29.843Z,13.49
2019-05-01T23:23:01.259Z,13.39
2019-05-01T23:25:36.668Z,13.46
2019-05-01T23:28:06.165Z,13.38
2019-05-01T23:30:37.562Z,13.35
2019-05-01T23:33:08.940Z,13.25
2019-05-01T23:35:40.706Z,13.13
2019-05-01T23:38:12.363Z,13.14
2019-05-01T23:40:46.141Z,13.05
2019-05-01T23:43:17.688Z,13.10
2019-05-01T23:45:48.943Z,12.95
2019-05-01T23:48:20.445Z,12.92
2019-05-01T23:50:51.789Z,12.90
2019-05-01T23:53:23.008Z,12.92
2019-05-01T23:55:54.718Z,12.97
2019-05-01T23:58:27.279Z,12.91
